createdAt,value
2023-01-15T00:00:50.300Z,23.42
2023-01-15T00:03:54.546Z,20.73
2023-01-15T00:06:57.121Z,17.87
2023-01-15T00:10:00.026Z,17.33
2023-01-15T00:13:03.048Z,16.98
2023-01-15T00:16:14.511Z,17.75
2023-01-15T00:19:18.970Z,20.55
2023-01-15T00:22:22.358Z,22.30
2023-01-15T00:25:43.102Z,27.20
2023-01-15T00:28:48.655Z,37.92
2023-01-15T00:32:03.918Z,22.80
2023-01-15T00:35:08.155Z,16.77
2023-01-15T00:38:10.805Z,28.63
2023-01-15T00:41:14.286Z,20.80
2023-01-15T00:44:17.139Z,23.92
2023-01-15T00:47:20.714Z,15.57
2023-01-15T00:50:25.192Z,14.68
2023-01-15T00:53:27.980Z,15.83
2023-01-15T00:56:30.680Z,14.07
2023-01-15T00:59:33.995Z,17.35
2023-01-15T01:02:36.691Z,18.48
2023-01-15T01:05:39.754Z,26.95
2023-01-15T01:08:43.502Z,14.93
2023-01-15T01:11:46.336Z,12.20
2023-01-15T01:14:48.849Z,26.58
2023-01-15T01:17:51.654Z,10.10
2023-01-15T01:20:54.960Z,10.52
2023-01-15T01:24:01.595Z,10.83
2023-01-15T01:27:04.185Z,9.93
2023-01-15T01:30:07.781Z,10.52
2023-01-15T01:33:11.097Z,12.23
2023-01-15T01:36:13.988Z,10.02
2023-01-15T01:39:19.584Z,13.67
2023-01-15T01:42:23.455Z,14.47
2023-01-15T01:45:28.930Z,12.30
2023-01-15T01:48:33.827Z,9.73
2023-01-15T01:51:46.088Z,9.70
2023-01-15T01:54:50.172Z,13.47
2023-01-15T01:57:55.035Z,14.90
2023-01-15T02:00:58.309Z,12.18
2023-01-15T02:04:01.889Z,9.75
2023-01-15T02:07:05.348Z,9.82
2023-01-15T02:10:14.606Z,13.40
2023-01-15T02:13:24.712Z,9.13
2023-01-15T02:16:49.326Z,9.25
2023-01-15T02:20:01.558Z,11.32
2023-01-15T02:23:26.444Z,7.20
2023-01-15T02:26:29.349Z,6.23
2023-01-15T02:29:38.233Z,7.77
2023-01-15T02:32:40.890Z,6.87
2023-01-15T02:35:46.862Z,5.62
2023-01-15T02:38:51.518Z,7.62
2023-01-15T02:41:56.265Z,10.40
2023-01-15T02:45:01.834Z,6.67
2023-01-15T02:48:11.355Z,6.82
2023-01-15T02:51:17.317Z,7.55
2023-01-15T02:54:20.600Z,8.55
2023-01-15T02:57:25.204Z,9.07
2023-01-15T03:00:31.953Z,6.63
2023-01-15T03:03:42.554Z,6.65
2023-01-15T03:07:06.739Z,6.57
2023-01-15T03:10:10.483Z,4.70
2023-01-15T03:13:17.981Z,7.23
2023-01-15T03:16:37.282Z,4.40
2023-01-15T03:19:59.546Z,5.53
2023-01-15T03:23:09.183Z,4.40
2023-01-15T03:26:13.175Z,5.40
2023-01-15T03:29:17.230Z,5.27
2023-01-15T03:32:20.756Z,3.83
2023-01-15T03:35:59.515Z,4.47
2023-01-15T03:39:03.787Z,8.30
2023-01-15T03:42:45.590Z,9.20
2023-01-15T03:45:50.780Z,7.80
2023-01-15T03:49:16.116Z,7.40
2023-01-15T03:52:33.354Z,6.47
2023-01-15T03:55:45.992Z,5.72
2023-01-15T03:59:14.049Z,2.85
2023-01-15T04:02:18.602Z,5.77
2023-01-15T04:05:23.826Z,3.90
2023-01-15T04:08:29.750Z,3.60
2023-01-15T04:11:32.731Z,4.72
2023-01-15T04:14:36.279Z,4.22
2023-01-15T04:17:40.981Z,3.57
2023-01-15T04:20:44.417Z,4.40
2023-01-15T04:23:47.910Z,2.45
2023-01-15T04:26:50.491Z,4.03
2023-01-15T04:29:54.237Z,4.10
2023-01-15T04:32:56.968Z,3.03
2023-01-15T04:36:00.981Z,4.07
2023-01-15T04:39:04.974Z,2.50
2023-01-15T04:42:31.417Z,4.45
2023-01-15T04:45:34.110Z,4.37
2023-01-15T04:48:37.013Z,3.13
2023-01-15T04:51:40.094Z,4.70
2023-01-15T04:54:43.074Z,2.97
2023-01-15T04:57:45.667Z,5.47
2023-01-15T05:00:53.267Z,3.45
2023-01-15T05:03:55.803Z,3.13
2023-01-15T05:06:58.676Z,3.57
2023-01-15T05:10:01.158Z,4.50
2023-01-15T05:13:04.112Z,3.47
2023-01-15T05:16:16.369Z,6.45
2023-01-15T05:19:19.516Z,3.67
2023-01-15T05:22:22.124Z,3.97
2023-01-15T05:25:24.963Z,3.80
2023-01-15T05:28:27.571Z,5.80
2023-01-15T05:31:31.359Z,3.70
2023-01-15T05:34:33.881Z,3.97
2023-01-15T05:37:36.691Z,2.73
2023-01-15T05:40:41.004Z,2.87
2023-01-15T05:43:43.828Z,3.30
2023-01-15T05:46:47.181Z,3.72
2023-01-15T05:49:50.285Z,2.67
2023-01-15T05:52:52.910Z,4.47
2023-01-15T05:55:55.857Z,4.47
2023-01-15T05:58:58.466Z,3.42
2023-01-15T06:02:01.328Z,5.28
2023-01-15T06:05:05.855Z,3.23
2023-01-15T06:08:08.498Z,2.83
2023-01-15T06:11:11.804Z,10.65
2023-01-15T06:14:14.949Z,6.40
2023-01-15T06:17:17.821Z,4.95
2023-01-15T06:20:21.078Z,7.90
2023-01-15T06:23:23.885Z,4.87
2023-01-15T06:26:26.739Z,5.87
2023-01-15T06:29:30.223Z,4.53
2023-01-15T06:32:33.062Z,6.00
2023-01-15T06:35:35.850Z,6.43
2023-01-15T06:38:39.065Z,4.13
2023-01-15T06:42:00.248Z,4.93
2023-01-15T06:45:21.452Z,4.55
2023-01-15T06:48:25.469Z,4.40
2023-01-15T06:51:30.970Z,4.03
2023-01-15T06:54:34.515Z,3.30
2023-01-15T06:57:39.123Z,9.45
2023-01-15T07:00:45.138Z,7.22
2023-01-15T07:03:48.024Z,9.63
2023-01-15T07:06:50.901Z,3.07
2023-01-15T07:09:53.465Z,2.97
2023-01-15T07:12:56.299Z,4.35
2023-01-15T07:16:00.912Z,2.85
2023-01-15T07:19:04.573Z,8.63
2023-01-15T07:22:08.028Z,5.50
2023-01-15T07:25:10.910Z,6.77
2023-01-15T07:28:13.606Z,4.57
2023-01-15T07:31:17.011Z,7.00
2023-01-15T07:34:19.979Z,6.40
2023-01-15T07:37:23.450Z,6.47
2023-01-15T07:40:26.467Z,13.13
2023-01-15T07:43:47.783Z,9.50
2023-01-15T07:47:08.837Z,4.78
2023-01-15T07:50:15.252Z,5.80
2023-01-15T07:53:17.887Z,7.90
2023-01-15T07:56:20.709Z,6.90
2023-01-15T07:59:25.212Z,3.28
2023-01-15T08:02:28.122Z,3.70
2023-01-15T08:05:31.291Z,5.37
2023-01-15T08:08:33.813Z,5.07
2023-01-15T08:11:54.882Z,7.93
2023-01-15T08:15:13.176Z,5.45
2023-01-15T08:18:16.014Z,4.30
2023-01-15T08:21:22.415Z,6.07
2023-01-15T08:24:25.269Z,5.13
2023-01-15T08:27:29.084Z,11.57
2023-01-15T08:30:35.888Z,5.35
2023-01-15T08:33:38.629Z,4.93
2023-01-15T08:36:41.521Z,3.55
2023-01-15T08:39:44.028Z,8.47
2023-01-15T08:42:46.995Z,5.40
2023-01-15T08:45:49.572Z,7.80
2023-01-15T08:48:53.431Z,10.30
2023-01-15T08:51:56.090Z,8.55
2023-01-15T08:54:58.898Z,4.93
2023-01-15T08:58:21.269Z,7.37
2023-01-15T09:01:44.912Z,4.57
2023-01-15T09:04:47.565Z,8.73
2023-01-15T09:07:50.529Z,12.52
2023-01-15T09:10:58.161Z,11.07
2023-01-15T09:14:00.952Z,3.80
2023-01-15T09:17:03.504Z,7.45
2023-01-15T09:20:08.937Z,6.62
2023-01-15T09:23:11.554Z,3.50
2023-01-15T09:26:32.667Z,9.80
2023-01-15T09:29:35.190Z,9.50
2023-01-15T09:32:38.136Z,11.15
2023-01-15T09:35:42.482Z,8.73
2023-01-15T09:38:45.856Z,8.95
2023-01-15T09:42:09.911Z,10.37
2023-01-15T09:45:31.621Z,10.87
2023-01-15T09:49:01.891Z,10.23
2023-01-15T09:52:16.825Z,12.73
2023-01-15T09:55:22.905Z,11.02
2023-01-15T09:58:52.155Z,15.57
2023-01-15T10:01:55.325Z,9.27
2023-01-15T10:05:20.138Z,10.27
2023-01-15T10:08:34.985Z,10.07
2023-01-15T10:12:03.057Z,17.75
2023-01-15T10:15:19.754Z,16.93
2023-01-15T10:18:24.581Z,13.47
2023-01-15T10:21:48.131Z,9.15
2023-01-15T10:24:57.269Z,9.73
2023-01-15T10:28:19.657Z,18.10
2023-01-15T10:31:24.700Z,8.37
2023-01-15T10:34:49.057Z,10.50
2023-01-15T10:38:16.337Z,29.98
2023-01-15T10:41:47.376Z,17.27
2023-01-15T10:45:05.035Z,13.93
2023-01-15T10:48:29.324Z,15.90
2023-01-15T10:51:45.871Z,13.93
2023-01-15T10:55:07.324Z,20.65
2023-01-15T10:58:16.345Z,17.75
2023-01-15T11:01:23.588Z,14.85
2023-01-15T11:04:30.110Z,13.90
2023-01-15T11:08:05.181Z,14.53
2023-01-15T11:11:19.511Z,30.48
2023-01-15T11:14:53.459Z,23.10
2023-01-15T11:18:14.963Z,10.88
2023-01-15T11:21:19.534Z,11.50
2023-01-15T11:24:22.377Z,14.03
2023-01-15T11:27:27.564Z,15.60
2023-01-15T11:30:37.704Z,11.82
2023-01-15T11:33:40.534Z,13.70
2023-01-15T11:36:43.433Z,15.13
2023-01-15T11:39:58.026Z,8.90
2023-01-15T11:43:19.426Z,14.07
2023-01-15T11:46:48.107Z,19.52
2023-01-15T11:50:14.005Z,18.00
2023-01-15T11:53:46.720Z,17.27
2023-01-15T11:56:49.570Z,35.27
2023-01-15T11:59:52.244Z,44.08
2023-01-15T12:03:00.523Z,22.73
2023-01-15T12:06:13.782Z,40.03
2023-01-15T12:09:44.111Z,18.10
2023-01-15T12:12:53.364Z,18.77
2023-01-15T12:16:14.995Z,15.00
2023-01-15T12:19:26.722Z,40.35
2023-01-15T12:23:03.566Z,17.92
2023-01-15T12:26:24.421Z,19.40
2023-01-15T12:29:30.067Z,20.50
2023-01-15T12:32:43.346Z,19.08
2023-01-15T12:36:10.436Z,19.35
2023-01-15T12:39:23.469Z,20.90
2023-01-15T12:42:46.540Z,24.17
2023-01-15T12:45:54.487Z,22.07
2023-01-15T12:49:16.570Z,20.10
2023-01-15T12:52:24.458Z,30.17
2023-01-15T12:55:32.438Z,26.60
2023-01-15T12:58:53.514Z,26.20
2023-01-15T13:02:11.185Z,20.70
2023-01-15T13:05:18.976Z,20.25
2023-01-15T13:08:29.384Z,21.70
2023-01-15T13:11:32.683Z,43.70
2023-01-15T13:14:35.445Z,43.20
2023-01-15T13:17:56.281Z,27.83
2023-01-15T13:21:01.330Z,27.27
2023-01-15T13:24:20.150Z,13.70
2023-01-15T13:27:55.313Z,27.85
2023-01-15T13:31:06.943Z,29.77
2023-01-15T13:37:32.474Z,24.60
2023-01-15T13:40:44.529Z,32.42
2023-01-15T13:43:47.787Z,42.05
2023-01-15T13:47:01.905Z,21.37
2023-01-15T13:50:12.689Z,27.80
2023-01-15T13:53:52.186Z,20.20
2023-01-15T13:56:55.416Z,23.00
2023-01-15T13:59:58.005Z,37.65
2023-01-15T14:03:22.525Z,43.17
2023-01-15T14:06:39.498Z,28.43
2023-01-15T14:09:42.172Z,43.13
2023-01-15T14:13:00.396Z,33.45
2023-01-15T14:16:38.394Z,25.80
2023-01-15T14:20:12.930Z,25.17
2023-01-15T14:23:21.956Z,22.77
2023-01-15T14:26:42.812Z,28.95
2023-01-15T14:30:05.036Z,23.75
2023-01-15T14:33:18.556Z,28.10
2023-01-15T14:36:29.895Z,27.53
2023-01-15T14:39:52.839Z,33.23
2023-01-15T14:43:04.783Z,38.67
2023-01-15T14:46:13.894Z,35.22
2023-01-15T14:49:29.806Z,33.85
2023-01-15T14:52:33.165Z,31.20
2023-01-15T14:55:39.652Z,38.17
2023-01-15T14:58:56.041Z,40.65
2023-01-15T15:02:02.005Z,44.83
2023-01-15T15:05:09.150Z,30.10
2023-01-15T15:08:16.572Z,38.03
2023-01-15T15:11:47.252Z,25.60
2023-01-15T15:15:31.352Z,26.95
2023-01-15T15:19:00.447Z,25.17
2023-01-15T15:22:04.884Z,28.17
2023-01-15T15:25:10.911Z,27.17
2023-01-15T15:28:13.854Z,41.40
2023-01-15T15:31:16.582Z,49.75
2023-01-15T15:34:40.253Z,38.33
2023-01-15T15:37:44.857Z,31.77
2023-01-15T15:40:51.794Z,20.47
2023-01-15T15:44:15.493Z,31.20
2023-01-15T15:47:41.845Z,28.08
2023-01-15T15:50:48.086Z,24.30
2023-01-15T15:53:51.227Z,23.65
2023-01-15T15:57:03.826Z,24.37
2023-01-15T16:00:17.292Z,27.43
2023-01-15T16:03:22.813Z,28.20
2023-01-15T16:06:27.670Z,25.40
2023-01-15T16:09:30.916Z,21.85
2023-01-15T16:12:34.680Z,23.67
2023-01-15T16:15:40.641Z,22.50
2023-01-15T16:18:48.884Z,23.52
2023-01-15T16:21:51.993Z,25.55
2023-01-15T16:24:56.810Z,47.60
2023-01-15T16:28:00.866Z,20.00
2023-01-15T16:31:03.724Z,26.93
2023-01-15T16:34:07.420Z,28.12
2023-01-15T16:37:36.792Z,59.35
2023-01-15T16:40:40.448Z,35.50
2023-01-15T16:43:57.819Z,32.77
2023-01-15T16:47:01.430Z,16.00
2023-01-15T16:50:22.648Z,36.25
2023-01-15T16:53:40.241Z,53.67
2023-01-15T16:56:42.692Z,52.03
2023-01-15T16:59:45.559Z,27.57
2023-01-15T17:02:48.646Z,27.27
2023-01-15T17:05:54.631Z,32.47
2023-01-15T17:08:58.811Z,34.75
2023-01-15T17:12:15.526Z,33.03
2023-01-15T17:15:18.368Z,36.27
2023-01-15T17:18:26.924Z,22.67
2023-01-15T17:21:29.908Z,23.48
2023-01-15T17:24:32.899Z,24.55
2023-01-15T17:27:35.725Z,26.40
2023-01-15T17:30:38.938Z,22.17
2023-01-15T17:33:41.936Z,26.23
2023-01-15T17:36:46.670Z,25.98
2023-01-15T17:39:49.460Z,24.40
2023-01-15T17:42:53.987Z,25.60
2023-01-15T17:45:56.784Z,24.03
2023-01-15T17:48:59.845Z,23.60
2023-01-15T17:52:05.291Z,54.33
2023-01-15T17:55:30.883Z,59.90
2023-01-15T17:58:51.973Z,54.95
2023-01-15T18:02:13.588Z,57.03
2023-01-15T18:05:25.908Z,41.20
2023-01-15T18:08:30.345Z,45.80
2023-01-15T18:11:33.356Z,45.58
2023-01-15T18:14:36.173Z,39.90
2023-01-15T18:17:39.242Z,37.90
2023-01-15T18:20:42.245Z,34.60
2023-01-15T18:23:45.401Z,34.03
2023-01-15T18:26:48.947Z,32.78
2023-01-15T18:29:52.015Z,30.42
2023-01-15T18:32:54.910Z,31.60
2023-01-15T18:36:04.085Z,35.23
2023-01-15T18:39:07.592Z,33.80
2023-01-15T18:42:10.875Z,33.55
2023-01-15T18:45:32.059Z,33.70
2023-01-15T18:48:35.491Z,37.50
2023-01-15T18:51:38.250Z,51.33
2023-01-15T18:54:41.474Z,58.60
2023-01-15T18:57:44.301Z,82.40
2023-01-15T19:00:47.422Z,87.78
2023-01-15T19:03:50.501Z,187.70
2023-01-15T19:06:53.998Z,176.40
2023-01-15T19:09:56.827Z,205.27
2023-01-15T19:13:02.297Z,173.75
2023-01-15T19:16:25.391Z,159.05
2023-01-15T19:19:28.752Z,107.37
2023-01-15T19:22:50.730Z,80.73
2023-01-15T19:25:54.023Z,68.18
2023-01-15T19:28:56.685Z,63.05
2023-01-15T19:32:00.201Z,48.67
2023-01-15T19:35:03.455Z,39.43
2023-01-15T19:38:10.680Z,33.13
2023-01-15T19:41:33.433Z,29.52
2023-01-15T19:44:55.484Z,30.45
2023-01-15T19:48:18.716Z,31.87
2023-01-15T19:51:22.216Z,27.97
2023-01-15T19:54:45.035Z,30.13
2023-01-15T19:57:55.145Z,27.27
2023-01-15T20:00:57.812Z,29.67
2023-01-15T20:04:00.756Z,37.83
2023-01-15T20:07:03.875Z,32.10
2023-01-15T20:10:09.975Z,28.67
2023-01-15T20:13:33.610Z,27.37
2023-01-15T20:16:36.815Z,22.62
2023-01-15T20:19:39.925Z,19.15
2023-01-15T20:22:43.044Z,19.43
2023-01-15T20:25:50.062Z,21.03
2023-01-15T20:28:53.156Z,18.75
2023-01-15T20:31:56.113Z,16.75
2023-01-15T20:35:00.300Z,18.42
2023-01-15T20:38:02.880Z,22.13
2023-01-15T20:41:26.540Z,24.53
2023-01-15T20:44:47.777Z,18.62
2023-01-15T20:48:09.320Z,20.70
2023-01-15T20:51:12.888Z,19.33
2023-01-15T20:54:16.004Z,25.63
2023-01-15T20:57:18.630Z,24.43
2023-01-15T21:00:22.903Z,24.33
2023-01-15T21:03:25.564Z,22.48
2023-01-15T21:06:29.331Z,23.52
2023-01-15T21:09:32.274Z,28.60
2023-01-15T21:12:35.314Z,28.70
2023-01-15T21:15:38.068Z,32.97
2023-01-15T21:18:43.479Z,33.47
2023-01-15T21:21:46.101Z,27.40
2023-01-15T21:24:51.409Z,20.03
2023-01-15T21:27:54.112Z,14.90
2023-01-15T21:30:57.198Z,11.10
2023-01-15T21:33:59.725Z,6.25
2023-01-15T21:37:02.523Z,4.00
2023-01-15T21:40:05.919Z,3.47
2023-01-15T21:43:29.006Z,3.47
2023-01-15T21:46:33.509Z,2.90
2023-01-15T21:49:36.571Z,2.55
2023-01-15T21:52:39.276Z,2.25
2023-01-15T21:55:48.996Z,3.07
2023-01-15T21:58:51.580Z,2.90
2023-01-15T22:01:58.618Z,3.17
2023-01-15T22:05:02.171Z,1.52
2023-01-15T22:08:05.110Z,1.83
2023-01-15T22:11:10.391Z,1.63
2023-01-15T22:14:14.537Z,3.13
2023-01-15T22:17:18.176Z,2.00
2023-01-15T22:20:21.108Z,2.50
2023-01-15T22:23:23.926Z,2.85
2023-01-15T22:26:28.715Z,2.17
2023-01-15T22:29:33.829Z,1.03
2023-01-15T22:32:36.490Z,2.58
2023-01-15T22:35:39.333Z,3.20
2023-01-15T22:38:41.938Z,3.62
2023-01-15T22:42:04.001Z,2.40
2023-01-15T22:45:06.688Z,4.60
2023-01-15T22:48:11.256Z,1.17
2023-01-15T22:51:13.739Z,1.48
2023-01-15T22:54:18.793Z,1.00
2023-01-15T22:57:22.684Z,1.23
2023-01-15T23:00:25.589Z,0.80
2023-01-15T23:03:28.505Z,1.12
2023-01-15T23:06:31.405Z,1.92
2023-01-15T23:09:35.280Z,1.73
2023-01-15T23:12:39.500Z,1.73
2023-01-15T23:15:42.092Z,1.63
2023-01-15T23:18:45.073Z,1.10
2023-01-15T23:21:47.934Z,1.10
2023-01-15T23:24:50.748Z,1.37
2023-01-15T23:27:53.274Z,1.10
2023-01-15T23:30:56.085Z,3.13
2023-01-15T23:33:58.879Z,0.90
2023-01-15T23:37:02.952Z,3.55
2023-01-15T23:40:06.335Z,2.40
2023-01-15T23:43:28.602Z,2.27
2023-01-15T23:46:37.557Z,3.73
2023-01-15T23:49:40.490Z,1.52
2023-01-15T23:52:43.005Z,1.70
2023-01-15T23:55:45.947Z,3.35
2023-01-15T23:58:48.805Z,1.40
